Blue Star Naxos — SZUI — position and weather

sailwx.info

Track history (hours):
 
Tides and Currents Weather Stations Pressure Air Temp Water Temp Dewpoint Dewpoint Depression Visibility Wind Speed Wind Dir Waves Ship Positions

Blue Star Naxos

Last reported at 2017-Feb-24 21:33 UTC. Time now 2017-Feb-24 21:38 UTC.
Position N 37°06' E 025°22'.

Length 124 m; draft 5 m.

Type: Passenger vessel. MMSI: 239923000.

Date/timePositionNaut miles runAvg speedWind from/ knotsBaromVisibWave heightAir tempDewpointWater temp
2017-Feb-24 21:33N 37°06' E 025°22'2110.5
2017-Feb-24 19:34N 37°12' E 024°57'6321.1
2017-Feb-24 16:33N 37°38' E 023°45'1919.0
2017-Feb-24 15:34N 37°57' E 023°38'0 0.1
2017-Feb-24 14:33N 37°57' E 023°38'0 0.0
2017-Feb-24 13:34N 37°57' E 023°38'1111.2
2017-Feb-24 12:33N 37°46' E 023°43'2721.5
2017-Feb-24 11:19N 37°32' E 024°12'4121.5
2017-Feb-24 09:25N 37°12' E 024°56'2111.5
2017-Feb-24 07:34N 37°07' E 025°22'1511.1
2017-Feb-24 06:10N 37°10' E 025°41'10 1.4
2017-Feb-23 23:21N 37°12' E 025°29'810.2
2017-Feb-23 22:33N 37°06' E 025°22'18 9.0
2017-Feb-23 20:34N 37°16' E 025°03'1912.8
2017-Feb-23 19:03N 37°32' E 024°49'5321.4
2017-Feb-23 16:33N 37°40' E 023°42'1717.1
2017-Feb-23 15:33N 37°57' E 023°38'0 0.0
2017-Feb-23 14:33N 37°57' E 023°38'0 0.0
2017-Feb-23 13:33N 37°57' E 023°38'9 9.3
2017-Feb-23 12:34N 37°48' E 023°41'6721.5
2017-Feb-23 09:27N 37°14' E 024°54'2312.1
2017-Feb-23 07:33N 37°07' E 025°21'1612.0
2017-Feb-23 06:16N 37°10' E 025°41'1 0.1
2017-Feb-22 22:33N 37°09' E 025°40'1514.6
2017-Feb-22 21:34N 37°06' E 025°22'20 9.8
2017-Feb-22 19:33N 37°11' E 024°58'6421.2
2017-Feb-22 16:33N 37°38' E 023°46'1919.3
2017-Feb-22 15:33N 37°56' E 023°38'1 0.5
2017-Feb-22 14:33N 37°57' E 023°38'0 0.0
2017-Feb-22 13:33N 37°57' E 023°38'8 8.2
2017-Feb-22 12:34N 37°49' E 023°41'6821.8
2017-Feb-22 09:27N 37°14' E 024°54'2312.3
2017-Feb-22 07:33N 37°07' E 025°22'4 3.6
2017-Feb-22 06:34N 37°04' E 025°19'5 0.7
2017-Feb-21 23:04N 36°59' E 025°20'714.6
2017-Feb-21 22:34N 37°06' E 025°22'8313.8
2017-Feb-21 16:34N 37°39' E 023°46'1918.8
2017-Feb-21 15:34N 37°56' E 023°38'0 0.4
2017-Feb-21 14:33N 37°57' E 023°38'0 0.0
2017-Feb-21 13:33N 37°57' E 023°38'8 7.9
2017-Feb-21 12:34N 37°49' E 023°41'6622.0
2017-Feb-21 09:33N 37°15' E 024°52'2512.8
2017-Feb-21 07:34N 37°06' E 025°22'1510.2
2017-Feb-21 06:08N 37°10' E 025°40'1 0.2
2017-Feb-20 22:33N 37°10' E 025°39'1413.8
2017-Feb-20 21:34N 37°06' E 025°22'2010.1
2017-Feb-20 19:34N 37°11' E 024°58'6421.2
2017-Feb-20 16:34N 37°39' E 023°45'1918.7
2017-Feb-20 15:33N 37°57' E 023°38'0 0.3
2017-Feb-20 14:33N 37°57' E 023°38'0 0.0
2017-Feb-20 13:33N 37°57' E 023°38'1211.5
2017-Feb-20 12:33N 37°46' E 023°43'6421.3
2017-Feb-20 09:33N 37°14' E 024°53'2412.2
2017-Feb-20 07:33N 37°06' E 025°22'5 4.7
2017-Feb-20 06:33N 37°03' E 025°18'2 0.2
2017-Feb-19 22:33N 37°01' E 025°19'10 9.6
2017-Feb-19 21:34N 37°10' E 025°16'7715.3
2017-Feb-19 16:32N 37°39' E 023°46'1919.2
2017-Feb-19 15:34N 37°56' E 023°38'1 0.6
2017-Feb-19 14:33N 37°57' E 023°38'0 0.0
2017-Feb-19 13:33N 37°57' E 023°38'1010.4
2017-Feb-19 12:33N 37°47' E 023°42'6421.3
2017-Feb-19 09:33N 37°15' E 024°52'2512.6
2017-Feb-19 07:33N 37°07' E 025°22'7 7.3
2017-Feb-19 06:34N 36°59' E 025°20'1 0.0
2017-Feb-17 22:09N 36°60' E 025°19'711.4
2017-Feb-17 21:33N 37°06' E 025°22'19 9.4
2017-Feb-17 19:34N 37°10' E 024°59'6421.5
2017-Feb-17 16:34N 37°39' E 023°46'1919.0
2017-Feb-17 15:33N 37°56' E 023°38'0 0.4
2017-Feb-17 14:33N 37°57' E 023°38'0 0.0
2017-Feb-17 13:34N 37°57' E 023°38'1110.5
2017-Feb-17 12:34N 37°47' E 023°42'6621.6
2017-Feb-17 09:29N 37°14' E 024°54'2312.0
2017-Feb-17 07:34N 37°06' E 025°22'1512.0
2017-Feb-17 06:19N 37°09' E 025°41'2 0.3
2017-Feb-16 23:33N 37°08' E 025°43'1716.6
2017-Feb-16 22:33N 37°07' E 025°22'8313.8
2017-Feb-16 16:33N 37°38' E 023°46'1919.1
2017-Feb-16 15:33N 37°57' E 023°38'0 0.4
2017-Feb-16 14:33N 37°57' E 023°38'0 0.1
2017-Feb-16 13:33N 37°57' E 023°38'1919.1
2017-Feb-16 12:33N 37°40' E 023°48'6421.2
2017-Feb-16 09:33N 37°09' E 024°59'1110.7
2017-Feb-16 08:30N 37°10' E 025°13'1111.6
2017-Feb-16 07:34N 37°11' E 025°27'10 1.1
2017-Feb-15 22:34N 37°10' E 025°39'1413.9
2017-Feb-15 21:34N 37°06' E 025°22'20 9.8
2017-Feb-15 19:34N 37°11' E 024°58'6521.5
2017-Feb-15 16:34N 37°39' E 023°45'1918.8
2017-Feb-15 15:33N 37°57' E 023°38'0 0.2
2017-Feb-15 14:33N 37°57' E 023°38'0 0.0
2017-Feb-15 13:33N 37°57' E 023°38'1010.5
2017-Feb-15 12:34N 37°47' E 023°42'6621.5
2017-Feb-15 09:29N 37°10' E 024°52'2512.8
2017-Feb-15 07:33N 37°06' E 025°22'6 5.7
2017-Feb-15 06:33N 37°01' E 025°19'3 0.4
2017-Feb-14 23:27N 36°59' E 025°20'7 8.3
2017-Feb-14 22:33N 37°06' E 025°22'  
Track history (hours):
 
Tides and Currents Weather Stations Pressure Air Temp Water Temp Dewpoint Dewpoint Depression Visibility Wind Speed Wind Dir Waves Ship Positions

Blue Star Naxos

Last reported at 2017-Feb-24 21:33 UTC. Time now 2017-Feb-24 21:38 UTC.
Position N 37°06' E 025°22'.

Length 124 m; draft 5 m.

Type: Passenger vessel. MMSI: 239923000.

Date/timePositionNaut miles runAvg speedWind from/ knotsBaromVisibWave heightAir tempDewpointWater temp
2017-Feb-24 21:33N 37°06' E 025°22'2110.5
2017-Feb-24 19:34N 37°12' E 024°57'6321.1
2017-Feb-24 16:33N 37°38' E 023°45'1919.0
2017-Feb-24 15:34N 37°57' E 023°38'0 0.1
2017-Feb-24 14:33N 37°57' E 023°38'0 0.0
2017-Feb-24 13:34N 37°57' E 023°38'1111.2
2017-Feb-24 12:33N 37°46' E 023°43'2721.5
2017-Feb-24 11:19N 37°32' E 024°12'4121.5
2017-Feb-24 09:25N 37°12' E 024°56'2111.5
2017-Feb-24 07:34N 37°07' E 025°22'1511.1
2017-Feb-24 06:10N 37°10' E 025°41'10 1.4
2017-Feb-23 23:21N 37°12' E 025°29'810.2
2017-Feb-23 22:33N 37°06' E 025°22'18 9.0
2017-Feb-23 20:34N 37°16' E 025°03'1912.8
2017-Feb-23 19:03N 37°32' E 024°49'5321.4
2017-Feb-23 16:33N 37°40' E 023°42'1717.1
2017-Feb-23 15:33N 37°57' E 023°38'0 0.0
2017-Feb-23 14:33N 37°57' E 023°38'0 0.0
2017-Feb-23 13:33N 37°57' E 023°38'9 9.3
2017-Feb-23 12:34N 37°48' E 023°41'6721.5
2017-Feb-23 09:27N 37°14' E 024°54'2312.1
2017-Feb-23 07:33N 37°07' E 025°21'1612.0
2017-Feb-23 06:16N 37°10' E 025°41'1 0.1
2017-Feb-22 22:33N 37°09' E 025°40'1514.6
2017-Feb-22 21:34N 37°06' E 025°22'20 9.8
2017-Feb-22 19:33N 37°11' E 024°58'6421.2
2017-Feb-22 16:33N 37°38' E 023°46'1919.3
2017-Feb-22 15:33N 37°56' E 023°38'1 0.5
2017-Feb-22 14:33N 37°57' E 023°38'0 0.0
2017-Feb-22 13:33N 37°57' E 023°38'8 8.2
2017-Feb-22 12:34N 37°49' E 023°41'6821.8
2017-Feb-22 09:27N 37°14' E 024°54'2312.3
2017-Feb-22 07:33N 37°07' E 025°22'4 3.6
2017-Feb-22 06:34N 37°04' E 025°19'5 0.7
2017-Feb-21 23:04N 36°59' E 025°20'714.6
2017-Feb-21 22:34N 37°06' E 025°22'8313.8
2017-Feb-21 16:34N 37°39' E 023°46'1918.8
2017-Feb-21 15:34N 37°56' E 023°38'0 0.4
2017-Feb-21 14:33N 37°57' E 023°38'0 0.0
2017-Feb-21 13:33N 37°57' E 023°38'8 7.9
2017-Feb-21 12:34N 37°49' E 023°41'6622.0
2017-Feb-21 09:33N 37°15' E 024°52'2512.8
2017-Feb-21 07:34N 37°06' E 025°22'1510.2
2017-Feb-21 06:08N 37°10' E 025°40'1 0.2
2017-Feb-20 22:33N 37°10' E 025°39'1413.8
2017-Feb-20 21:34N 37°06' E 025°22'2010.1
2017-Feb-20 19:34N 37°11' E 024°58'6421.2
2017-Feb-20 16:34N 37°39' E 023°45'1918.7
2017-Feb-20 15:33N 37°57' E 023°38'0 0.3
2017-Feb-20 14:33N 37°57' E 023°38'0 0.0
2017-Feb-20 13:33N 37°57' E 023°38'1211.5
2017-Feb-20 12:33N 37°46' E 023°43'6421.3
2017-Feb-20 09:33N 37°14' E 024°53'2412.2
2017-Feb-20 07:33N 37°06' E 025°22'5 4.7
2017-Feb-20 06:33N 37°03' E 025°18'2 0.2
2017-Feb-19 22:33N 37°01' E 025°19'10 9.6
2017-Feb-19 21:34N 37°10' E 025°16'7715.3
2017-Feb-19 16:32N 37°39' E 023°46'1919.2
2017-Feb-19 15:34N 37°56' E 023°38'1 0.6
2017-Feb-19 14:33N 37°57' E 023°38'0 0.0
2017-Feb-19 13:33N 37°57' E 023°38'1010.4
2017-Feb-19 12:33N 37°47' E 023°42'6421.3
2017-Feb-19 09:33N 37°15' E 024°52'2512.6
2017-Feb-19 07:33N 37°07' E 025°22'7 7.3
2017-Feb-19 06:34N 36°59' E 025°20'1 0.0
2017-Feb-17 22:09N 36°60' E 025°19'711.4
2017-Feb-17 21:33N 37°06' E 025°22'19 9.4
2017-Feb-17 19:34N 37°10' E 024°59'6421.5
2017-Feb-17 16:34N 37°39' E 023°46'1919.0
2017-Feb-17 15:33N 37°56' E 023°38'0 0.4
2017-Feb-17 14:33N 37°57' E 023°38'0 0.0
2017-Feb-17 13:34N 37°57' E 023°38'1110.5
2017-Feb-17 12:34N 37°47' E 023°42'6621.6
2017-Feb-17 09:29N 37°14' E 024°54'2312.0
2017-Feb-17 07:34N 37°06' E 025°22'1512.0
2017-Feb-17 06:19N 37°09' E 025°41'2 0.3
2017-Feb-16 23:33N 37°08' E 025°43'1716.6
2017-Feb-16 22:33N 37°07' E 025°22'8313.8
2017-Feb-16 16:33N 37°38' E 023°46'1919.1
2017-Feb-16 15:33N 37°57' E 023°38'0 0.4
2017-Feb-16 14:33N 37°57' E 023°38'0 0.1
2017-Feb-16 13:33N 37°57' E 023°38'1919.1
2017-Feb-16 12:33N 37°40' E 023°48'6421.2
2017-Feb-16 09:33N 37°09' E 024°59'1110.7
2017-Feb-16 08:30N 37°10' E 025°13'1111.6
2017-Feb-16 07:34N 37°11' E 025°27'10 1.1
2017-Feb-15 22:34N 37°10' E 025°39'1413.9
2017-Feb-15 21:34N 37°06' E 025°22'20 9.8
2017-Feb-15 19:34N 37°11' E 024°58'6521.5
2017-Feb-15 16:34N 37°39' E 023°45'1918.8
2017-Feb-15 15:33N 37°57' E 023°38'0 0.2
2017-Feb-15 14:33N 37°57' E 023°38'0 0.0
2017-Feb-15 13:33N 37°57' E 023°38'1010.5
2017-Feb-15 12:34N 37°47' E 023°42'6621.5
2017-Feb-15 09:29N 37°10' E 024°52'2512.8
2017-Feb-15 07:33N 37°06' E 025°22'6 5.7
2017-Feb-15 06:33N 37°01' E 025°19'3 0.4
2017-Feb-14 23:27N 36°59' E 025°20'7 8.3
2017-Feb-14 22:33N 37°06' E 025°22'  

Dump ship's entire track history